sensor_id;sensor_type;location;lat;lon;timestamp;P1;durP1;ratioP1;P2;durP2;ratioP2
47958;SDS011;33718;50.910;-1.514;2023-01-29T00:00:10;27.95;;;16.92;;
47958;SDS011;33718;50.910;-1.514;2023-01-29T00:02:17;36.33;;;20.05;;
47958;SDS011;33718;50.910;-1.514;2023-01-29T00:04:24;30.40;;;17.00;;
47958;SDS011;33718;50.910;-1.514;2023-01-29T00:07:33;28.65;;;20.27;;
47958;SDS011;33718;50.910;-1.514;2023-01-29T00:10:09;39.03;;;18.98;;
47958;SDS011;33718;50.910;-1.514;2023-01-29T00:12:49;46.15;;;22.15;;
47958;SDS011;33718;50.910;-1.514;2023-01-29T00:15:37;31.42;;;20.05;;
47958;SDS011;33718;50.910;-1.514;2023-01-29T00:18:02;36.45;;;20.25;;
47958;SDS011;33718;50.910;-1.514;2023-01-29T00:20:21;35.35;;;18.80;;
47958;SDS011;33718;50.910;-1.514;2023-01-29T00:22:34;34.33;;;17.25;;
47958;SDS011;33718;50.910;-1.514;2023-01-29T00:24:46;34.83;;;18.42;;
47958;SDS011;33718;50.910;-1.514;2023-01-29T00:27:13;31.42;;;17.80;;
47958;SDS011;33718;50.910;-1.514;2023-01-29T00:29:37;30.98;;;17.27;;
47958;SDS011;33718;50.910;-1.514;2023-01-29T00:32:43;30.48;;;19.40;;
47958;SDS011;33718;50.910;-1.514;2023-01-29T00:34:58;27.75;;;18.52;;
47958;SDS011;33718;50.910;-1.514;2023-01-29T00:37:44;38.17;;;17.95;;
47958;SDS011;33718;50.910;-1.514;2023-01-29T00:40:11;34.72;;;18.55;;
47958;SDS011;33718;50.910;-1.514;2023-01-29T00:42:39;27.67;;;17.45;;
47958;SDS011;33718;50.910;-1.514;2023-01-29T00:45:23;32.85;;;17.77;;
47958;SDS011;33718;50.910;-1.514;2023-01-29T00:48:47;30.60;;;18.60;;
47958;SDS011;33718;50.910;-1.514;2023-01-29T00:51:55;31.85;;;17.77;;
47958;SDS011;33718;50.910;-1.514;2023-01-29T00:55:14;29.15;;;17.63;;
47958;SDS011;33718;50.910;-1.514;2023-01-29T00:58:28;30.10;;;17.70;;
47958;SDS011;33718;50.910;-1.514;2023-01-29T01:08:11;26.60;;;17.40;;
47958;SDS011;33718;50.910;-1.514;2023-01-29T01:11:32;33.03;;;17.70;;
47958;SDS011;33718;50.910;-1.514;2023-01-29T01:38:22;27.52;;;15.90;;
47958;SDS011;33718;50.910;-1.514;2023-01-29T01:41:40;27.45;;;16.98;;
47958;SDS011;33718;50.910;-1.514;2023-01-29T01:56:02;27.08;;;15.57;;
47958;SDS011;33718;50.910;-1.514;2023-01-29T01:58:59;28.20;;;15.90;;
47958;SDS011;33718;50.910;-1.514;2023-01-29T02:02:11;31.33;;;19.05;;
47958;SDS011;33718;50.910;-1.514;2023-01-29T02:04:50;34.95;;;19.25;;
47958;SDS011;33718;50.910;-1.514;2023-01-29T02:07:50;31.75;;;19.27;;
47958;SDS011;33718;50.910;-1.514;2023-01-29T02:30:43;34.42;;;21.02;;
47958;SDS011;33718;50.910;-1.514;2023-01-29T02:47:47;35.05;;;20.70;;
47958;SDS011;33718;50.910;-1.514;2023-01-29T02:58:07;37.53;;;20.77;;
47958;SDS011;33718;50.910;-1.514;2023-01-29T03:01:03;34.25;;;19.10;;
47958;SDS011;33718;50.910;-1.514;2023-01-29T03:06:49;34.00;;;20.50;;
47958;SDS011;33718;50.910;-1.514;2023-01-29T03:09:40;31.83;;;18.23;;
47958;SDS011;33718;50.910;-1.514;2023-01-29T03:12:52;36.00;;;20.45;;
47958;SDS011;33718;50.910;-1.514;2023-01-29T03:16:01;38.15;;;20.92;;
47958;SDS011;33718;50.910;-1.514;2023-01-29T03:19:32;32.70;;;19.13;;
47958;SDS011;33718;50.910;-1.514;2023-01-29T03:23:03;40.90;;;21.42;;
47958;SDS011;33718;50.910;-1.514;2023-01-29T03:45:21;31.85;;;17.60;;
47958;SDS011;33718;50.910;-1.514;2023-01-29T03:49:01;27.80;;;16.42;;
47958;SDS011;33718;50.910;-1.514;2023-01-29T03:55:50;29.40;;;17.55;;
47958;SDS011;33718;50.910;-1.514;2023-01-29T04:12:37;29.55;;;16.55;;
47958;SDS011;33718;50.910;-1.514;2023-01-29T04:19:42;28.95;;;14.30;;
47958;SDS011;33718;50.910;-1.514;2023-01-29T04:57:54;27.85;;;15.60;;
47958;SDS011;33718;50.910;-1.514;2023-01-29T04:59:59;24.40;;;14.85;;
47958;SDS011;33718;50.910;-1.514;2023-01-29T05:02:07;29.88;;;15.85;;
47958;SDS011;33718;50.910;-1.514;2023-01-29T05:04:11;26.83;;;14.93;;
47958;SDS011;33718;50.910;-1.514;2023-01-29T05:06:16;22.10;;;13.88;;
47958;SDS011;33718;50.910;-1.514;2023-01-29T05:08:19;26.02;;;14.25;;
47958;SDS011;33718;50.910;-1.514;2023-01-29T05:10:21;23.90;;;15.70;;
47958;SDS011;33718;50.910;-1.514;2023-01-29T05:12:24;22.65;;;13.30;;
47958;SDS011;33718;50.910;-1.514;2023-01-29T05:14:32;26.63;;;15.20;;
47958;SDS011;33718;50.910;-1.514;2023-01-29T05:16:39;27.25;;;15.10;;
47958;SDS011;33718;50.910;-1.514;2023-01-29T05:18:42;19.77;;;13.07;;
47958;SDS011;33718;50.910;-1.514;2023-01-29T05:24:24;23.92;;;12.88;;
47958;SDS011;33718;50.910;-1.514;2023-01-29T05:56:36;28.17;;;13.70;;
47958;SDS011;33718;50.910;-1.514;2023-01-29T06:00:08;23.95;;;12.75;;
47958;SDS011;33718;50.910;-1.514;2023-01-29T06:03:19;18.67;;;11.50;;
47958;SDS011;33718;50.910;-1.514;2023-01-29T06:06:13;20.00;;;10.68;;
47958;SDS011;33718;50.910;-1.514;2023-01-29T06:08:50;18.08;;;11.40;;
47958;SDS011;33718;50.910;-1.514;2023-01-29T06:10:52;15.23;;;10.38;;
47958;SDS011;33718;50.910;-1.514;2023-01-29T06:13:00;19.55;;;10.45;;
47958;SDS011;33718;50.910;-1.514;2023-01-29T06:25:23;14.55;;;9.32;;
47958;SDS011;33718;50.910;-1.514;2023-01-29T06:28:06;13.35;;;9.45;;
47958;SDS011;33718;50.910;-1.514;2023-01-29T06:31:44;13.05;;;8.98;;
47958;SDS011;33718;50.910;-1.514;2023-01-29T06:34:00;15.38;;;10.00;;
47958;SDS011;33718;50.910;-1.514;2023-01-29T06:36:19;12.50;;;9.38;;
47958;SDS011;33718;50.910;-1.514;2023-01-29T06:38:45;17.08;;;10.80;;
47958;SDS011;33718;50.910;-1.514;2023-01-29T06:40:51;15.35;;;9.25;;
47958;SDS011;33718;50.910;-1.514;2023-01-29T06:42:59;22.20;;;9.65;;
47958;SDS011;33718;50.910;-1.514;2023-01-29T06:45:08;19.02;;;11.52;;
47958;SDS011;33718;50.910;-1.514;2023-01-29T06:47:30;18.88;;;11.15;;
47958;SDS011;33718;50.910;-1.514;2023-01-29T06:49:37;18.67;;;11.13;;
47958;SDS011;33718;50.910;-1.514;2023-01-29T06:51:44;15.95;;;9.23;;
47958;SDS011;33718;50.910;-1.514;2023-01-29T06:53:54;15.98;;;8.95;;
47958;SDS011;33718;50.910;-1.514;2023-01-29T06:56:03;13.35;;;8.20;;
47958;SDS011;33718;50.910;-1.514;2023-01-29T06:58:20;12.05;;;8.55;;
47958;SDS011;33718;50.910;-1.514;2023-01-29T07:00:51;15.30;;;8.23;;
47958;SDS011;33718;50.910;-1.514;2023-01-29T07:03:02;16.75;;;8.75;;
47958;SDS011;33718;50.910;-1.514;2023-01-29T07:05:15;12.75;;;8.50;;
47958;SDS011;33718;50.910;-1.514;2023-01-29T07:07:34;12.57;;;8.45;;
47958;SDS011;33718;50.910;-1.514;2023-01-29T07:09:52;16.17;;;8.75;;
47958;SDS011;33718;50.910;-1.514;2023-01-29T07:12:00;18.63;;;9.35;;
47958;SDS011;33718;50.910;-1.514;2023-01-29T07:14:15;21.50;;;9.57;;
47958;SDS011;33718;50.910;-1.514;2023-01-29T07:16:29;14.80;;;9.20;;
47958;SDS011;33718;50.910;-1.514;2023-01-29T07:18:56;16.83;;;8.52;;
47958;SDS011;33718;50.910;-1.514;2023-01-29T07:21:13;16.42;;;8.30;;
47958;SDS011;33718;50.910;-1.514;2023-01-29T07:23:38;15.05;;;8.70;;
47958;SDS011;33718;50.910;-1.514;2023-01-29T07:25:48;11.00;;;7.50;;
47958;SDS011;33718;50.910;-1.514;2023-01-29T07:27:50;13.35;;;8.57;;
47958;SDS011;33718;50.910;-1.514;2023-01-29T07:29:52;15.70;;;8.80;;
47958;SDS011;33718;50.910;-1.514;2023-01-29T07:31:59;18.98;;;9.57;;
47958;SDS011;33718;50.910;-1.514;2023-01-29T07:34:04;12.82;;;8.95;;
47958;SDS011;33718;50.910;-1.514;2023-01-29T07:36:24;14.93;;;9.45;;
47958;SDS011;33718;50.910;-1.514;2023-01-29T07:38:33;16.67;;;9.20;;
47958;SDS011;33718;50.910;-1.514;2023-01-29T07:40:35;17.88;;;9.60;;
47958;SDS011;33718;50.910;-1.514;2023-01-29T07:42:42;16.30;;;9.20;;
47958;SDS011;33718;50.910;-1.514;2023-01-29T07:44:50;16.25;;;10.00;;
47958;SDS011;33718;50.910;-1.514;2023-01-29T07:46:52;19.70;;;9.70;;
47958;SDS011;33718;50.910;-1.514;2023-01-29T07:48:59;24.30;;;11.07;;
47958;SDS011;33718;50.910;-1.514;2023-01-29T07:51:01;14.52;;;10.02;;
47958;SDS011;33718;50.910;-1.514;2023-01-29T07:53:03;18.67;;;10.40;;
47958;SDS011;33718;50.910;-1.514;2023-01-29T07:55:08;20.33;;;11.25;;
47958;SDS011;33718;50.910;-1.514;2023-01-29T07:57:10;23.65;;;11.90;;
47958;SDS011;33718;50.910;-1.514;2023-01-29T07:59:18;26.60;;;11.82;;
47958;SDS011;33718;50.910;-1.514;2023-01-29T08:01:22;20.60;;;11.75;;
47958;SDS011;33718;50.910;-1.514;2023-01-29T08:03:24;21.75;;;10.73;;
47958;SDS011;33718;50.910;-1.514;2023-01-29T08:05:45;18.08;;;10.23;;
47958;SDS011;33718;50.910;-1.514;2023-01-29T08:07:51;18.45;;;10.10;;
47958;SDS011;33718;50.910;-1.514;2023-01-29T08:10:12;28.13;;;13.05;;
47958;SDS011;33718;50.910;-1.514;2023-01-29T08:12:14;19.55;;;11.55;;
47958;SDS011;33718;50.910;-1.514;2023-01-29T08:14:35;19.17;;;11.18;;
47958;SDS011;33718;50.910;-1.514;2023-01-29T08:16:38;21.60;;;11.10;;
47958;SDS011;33718;50.910;-1.514;2023-01-29T08:18:50;26.95;;;11.93;;
47958;SDS011;33718;50.910;-1.514;2023-01-29T08:20:51;16.38;;;9.15;;
47958;SDS011;33718;50.910;-1.514;2023-01-29T08:23:13;20.23;;;10.63;;
47958;SDS011;33718;50.910;-1.514;2023-01-29T08:25:15;20.98;;;10.60;;
47958;SDS011;33718;50.910;-1.514;2023-01-29T08:27:17;22.27;;;10.65;;
47958;SDS011;33718;50.910;-1.514;2023-01-29T08:29:18;18.13;;;9.57;;
47958;SDS011;33718;50.910;-1.514;2023-01-29T08:33:24;15.00;;;9.05;;
47958;SDS011;33718;50.910;-1.514;2023-01-29T08:35:39;17.63;;;9.88;;
47958;SDS011;33718;50.910;-1.514;2023-01-29T08:37:54;21.20;;;10.02;;
47958;SDS011;33718;50.910;-1.514;2023-01-29T08:39:55;20.17;;;9.98;;
47958;SDS011;33718;50.910;-1.514;2023-01-29T08:41:57;21.75;;;9.68;;
47958;SDS011;33718;50.910;-1.514;2023-01-29T08:43:58;17.15;;;9.32;;
47958;SDS011;33718;50.910;-1.514;2023-01-29T08:46:03;16.52;;;8.90;;
47958;SDS011;33718;50.910;-1.514;2023-01-29T08:48:08;22.85;;;10.88;;
47958;SDS011;33718;50.910;-1.514;2023-01-29T08:50:16;16.58;;;8.80;;
47958;SDS011;33718;50.910;-1.514;2023-01-29T08:52:18;18.77;;;9.93;;
47958;SDS011;33718;50.910;-1.514;2023-01-29T08:54:20;16.00;;;8.95;;
47958;SDS011;33718;50.910;-1.514;2023-01-29T08:56:27;15.23;;;8.70;;
47958;SDS011;33718;50.910;-1.514;2023-01-29T08:58:28;20.80;;;9.77;;
47958;SDS011;33718;50.910;-1.514;2023-01-29T09:00:33;13.20;;;8.75;;
47958;SDS011;33718;50.910;-1.514;2023-01-29T09:02:38;15.63;;;9.30;;
47958;SDS011;33718;50.910;-1.514;2023-01-29T09:04:58;20.30;;;9.82;;
47958;SDS011;33718;50.910;-1.514;2023-01-29T09:07:00;16.73;;;10.15;;
47958;SDS011;33718;50.910;-1.514;2023-01-29T09:09:20;21.40;;;11.60;;
47958;SDS011;33718;50.910;-1.514;2023-01-29T09:11:24;19.05;;;10.65;;
47958;SDS011;33718;50.910;-1.514;2023-01-29T09:13:29;21.83;;;10.45;;
47958;SDS011;33718;50.910;-1.514;2023-01-29T09:15:30;17.50;;;10.02;;
47958;SDS011;33718;50.910;-1.514;2023-01-29T09:17:32;21.27;;;8.93;;
47958;SDS011;33718;50.910;-1.514;2023-01-29T09:19:33;18.55;;;9.80;;
47958;SDS011;33718;50.910;-1.514;2023-01-29T09:21:35;18.73;;;10.18;;
47958;SDS011;33718;50.910;-1.514;2023-01-29T09:23:40;19.67;;;10.32;;
47958;SDS011;33718;50.910;-1.514;2023-01-29T09:25:44;11.82;;;8.48;;
47958;SDS011;33718;50.910;-1.514;2023-01-29T09:27:45;17.90;;;8.57;;
47958;SDS011;33718;50.910;-1.514;2023-01-29T09:29:53;14.32;;;8.63;;
47958;SDS011;33718;50.910;-1.514;2023-01-29T09:32:00;18.00;;;10.35;;
47958;SDS011;33718;50.910;-1.514;2023-01-29T09:34:02;13.40;;;9.15;;
47958;SDS011;33718;50.910;-1.514;2023-01-29T09:36:03;14.10;;;7.97;;
47958;SDS011;33718;50.910;-1.514;2023-01-29T09:38:08;14.63;;;7.97;;
47958;SDS011;33718;50.910;-1.514;2023-01-29T09:40:28;13.68;;;8.18;;
47958;SDS011;33718;50.910;-1.514;2023-01-29T09:44:37;11.30;;;7.22;;
47958;SDS011;33718;50.910;-1.514;2023-01-29T09:46:43;14.93;;;8.43;;
47958;SDS011;33718;50.910;-1.514;2023-01-29T09:48:46;18.43;;;7.97;;
47958;SDS011;33718;50.910;-1.514;2023-01-29T09:50:52;19.98;;;8.30;;
47958;SDS011;33718;50.910;-1.514;2023-01-29T09:53:00;12.52;;;7.57;;
47958;SDS011;33718;50.910;-1.514;2023-01-29T09:55:09;13.27;;;6.05;;
47958;SDS011;33718;50.910;-1.514;2023-01-29T09:57:18;13.63;;;6.82;;
47958;SDS011;33718;50.910;-1.514;2023-01-29T09:59:24;9.63;;;6.10;;
47958;SDS011;33718;50.910;-1.514;2023-01-29T10:10:54;19.02;;;4.63;;
47958;SDS011;33718;50.910;-1.514;2023-01-29T10:13:26;10.25;;;5.00;;
47958;SDS011;33718;50.910;-1.514;2023-01-29T10:25:02;8.40;;;4.03;;
47958;SDS011;33718;50.910;-1.514;2023-01-29T10:27:34;7.05;;;3.80;;
47958;SDS011;33718;50.910;-1.514;2023-01-29T10:29:45;5.28;;;3.80;;
47958;SDS011;33718;50.910;-1.514;2023-01-29T10:31:57;9.20;;;3.53;;
47958;SDS011;33718;50.910;-1.514;2023-01-29T10:34:34;6.15;;;3.80;;
47958;SDS011;33718;50.910;-1.514;2023-01-29T10:36:47;12.30;;;3.38;;
47958;SDS011;33718;50.910;-1.514;2023-01-29T10:38:55;3.85;;;3.08;;
47958;SDS011;33718;50.910;-1.514;2023-01-29T10:43:11;5.32;;;3.58;;
47958;SDS011;33718;50.910;-1.514;2023-01-29T11:00:50;4.45;;;2.80;;
47958;SDS011;33718;50.910;-1.514;2023-01-29T11:03:38;3.30;;;2.78;;
47958;SDS011;33718;50.910;-1.514;2023-01-29T11:08:59;3.88;;;2.97;;
47958;SDS011;33718;50.910;-1.514;2023-01-29T11:11:18;6.53;;;3.40;;
47958;SDS011;33718;50.910;-1.514;2023-01-29T11:14:25;4.78;;;3.28;;
47958;SDS011;33718;50.910;-1.514;2023-01-29T11:16:28;6.03;;;2.63;;
47958;SDS011;33718;50.910;-1.514;2023-01-29T11:18:53;3.45;;;2.65;;
47958;SDS011;33718;50.910;-1.514;2023-01-29T11:21:02;3.03;;;2.45;;
47958;SDS011;33718;50.910;-1.514;2023-01-29T11:23:27;3.65;;;2.45;;
47958;SDS011;33718;50.910;-1.514;2023-01-29T11:25:41;5.55;;;2.08;;
47958;SDS011;33718;50.910;-1.514;2023-01-29T11:27:55;5.50;;;1.77;;
47958;SDS011;33718;50.910;-1.514;2023-01-29T11:30:14;3.65;;;1.73;;
47958;SDS011;33718;50.910;-1.514;2023-01-29T11:32:39;2.17;;;1.20;;
47958;SDS011;33718;50.910;-1.514;2023-01-29T11:34:57;2.33;;;1.08;;
47958;SDS011;33718;50.910;-1.514;2023-01-29T11:37:14;2.45;;;1.20;;
47958;SDS011;33718;50.910;-1.514;2023-01-29T11:39:18;6.82;;;2.60;;
47958;SDS011;33718;50.910;-1.514;2023-01-29T11:41:26;4.70;;;1.33;;
47958;SDS011;33718;50.910;-1.514;2023-01-29T11:43:33;1.77;;;0.98;;
47958;SDS011;33718;50.910;-1.514;2023-01-29T11:45:41;2.70;;;1.00;;
47958;SDS011;33718;50.910;-1.514;2023-01-29T11:47:43;1.30;;;1.08;;
47958;SDS011;33718;50.910;-1.514;2023-01-29T11:49:49;4.38;;;0.85;;
47958;SDS011;33718;50.910;-1.514;2023-01-29T11:51:54;3.50;;;1.17;;
47958;SDS011;33718;50.910;-1.514;2023-01-29T11:54:15;1.58;;;1.15;;
47958;SDS011;33718;50.910;-1.514;2023-01-29T11:58:28;2.65;;;1.35;;
47958;SDS011;33718;50.910;-1.514;2023-01-29T12:00:38;3.30;;;1.20;;
47958;SDS011;33718;50.910;-1.514;2023-01-29T12:02:41;3.72;;;1.27;;
47958;SDS011;33718;50.910;-1.514;2023-01-29T12:04:48;1.70;;;1.20;;
47958;SDS011;33718;50.910;-1.514;2023-01-29T12:07:15;4.45;;;1.02;;
47958;SDS011;33718;50.910;-1.514;2023-01-29T12:09:25;2.53;;;0.88;;
47958;SDS011;33718;50.910;-1.514;2023-01-29T12:11:34;1.58;;;0.70;;
47958;SDS011;33718;50.910;-1.514;2023-01-29T12:13:41;4.68;;;0.93;;
47958;SDS011;33718;50.910;-1.514;2023-01-29T12:16:09;1.90;;;0.65;;
47958;SDS011;33718;50.910;-1.514;2023-01-29T12:18:39;2.17;;;0.60;;
47958;SDS011;33718;50.910;-1.514;2023-01-29T12:20:55;3.25;;;0.52;;
47958;SDS011;33718;50.910;-1.514;2023-01-29T12:25:34;0.88;;;0.47;;
47958;SDS011;33718;50.910;-1.514;2023-01-29T12:27:59;0.70;;;0.50;;
47958;SDS011;33718;50.910;-1.514;2023-01-29T12:34:34;0.40;;;0.40;;
47958;SDS011;33718;50.910;-1.514;2023-01-29T12:39:02;3.92;;;0.50;;
47958;SDS011;33718;50.910;-1.514;2023-01-29T12:41:07;1.17;;;0.68;;
47958;SDS011;33718;50.910;-1.514;2023-01-29T12:46:16;3.40;;;0.50;;
47958;SDS011;33718;50.910;-1.514;2023-01-29T12:48:56;0.88;;;0.65;;
47958;SDS011;33718;50.910;-1.514;2023-01-29T12:51:13;1.95;;;0.60;;
47958;SDS011;33718;50.910;-1.514;2023-01-29T12:55:26;2.47;;;0.55;;
47958;SDS011;33718;50.910;-1.514;2023-01-29T12:59:57;1.67;;;0.50;;
47958;SDS011;33718;50.910;-1.514;2023-01-29T13:02:17;1.05;;;0.55;;
47958;SDS011;33718;50.910;-1.514;2023-01-29T13:04:37;1.58;;;0.55;;
47958;SDS011;33718;50.910;-1.514;2023-01-29T13:06:45;5.85;;;0.50;;
47958;SDS011;33718;50.910;-1.514;2023-01-29T13:09:26;0.88;;;0.73;;
47958;SDS011;33718;50.910;-1.514;2023-01-29T13:13:59;1.20;;;0.50;;
47958;SDS011;33718;50.910;-1.514;2023-01-29T13:16:15;1.05;;;0.40;;
47958;SDS011;33718;50.910;-1.514;2023-01-29T13:20:43;0.88;;;0.40;;
47958;SDS011;33718;50.910;-1.514;2023-01-29T13:22:58;1.80;;;0.45;;
47958;SDS011;33718;50.910;-1.514;2023-01-29T13:25:15;0.63;;;0.32;;
47958;SDS011;33718;50.910;-1.514;2023-01-29T13:27:31;0.77;;;0.30;;
47958;SDS011;33718;50.910;-1.514;2023-01-29T13:29:59;0.88;;;0.43;;
47958;SDS011;33718;50.910;-1.514;2023-01-29T13:32:20;2.10;;;0.50;;
47958;SDS011;33718;50.910;-1.514;2023-01-29T13:34:47;1.27;;;0.40;;
47958;SDS011;33718;50.910;-1.514;2023-01-29T13:37:08;2.45;;;0.50;;
47958;SDS011;33718;50.910;-1.514;2023-01-29T13:39:33;0.52;;;0.40;;
47958;SDS011;33718;50.910;-1.514;2023-01-29T13:41:39;0.82;;;0.40;;
47958;SDS011;33718;50.910;-1.514;2023-01-29T13:43:47;2.30;;;0.63;;
47958;SDS011;33718;50.910;-1.514;2023-01-29T13:45:52;2.00;;;0.50;;
47958;SDS011;33718;50.910;-1.514;2023-01-29T13:47:55;0.50;;;0.50;;
47958;SDS011;33718;50.910;-1.514;2023-01-29T13:50:18;1.90;;;0.70;;
47958;SDS011;33718;50.910;-1.514;2023-01-29T13:54:31;0.95;;;0.65;;
47958;SDS011;33718;50.910;-1.514;2023-01-29T13:56:44;2.05;;;0.85;;
47958;SDS011;33718;50.910;-1.514;2023-01-29T13:58:55;2.33;;;0.75;;
47958;SDS011;33718;50.910;-1.514;2023-01-29T14:00:58;0.77;;;0.40;;
47958;SDS011;33718;50.910;-1.514;2023-01-29T14:11:48;0.70;;;0.60;;
47958;SDS011;33718;50.910;-1.514;2023-01-29T14:13:50;3.08;;;0.50;;
47958;SDS011;33718;50.910;-1.514;2023-01-29T14:18:16;1.23;;;0.50;;
47958;SDS011;33718;50.910;-1.514;2023-01-29T14:20:19;2.95;;;0.55;;
47958;SDS011;33718;50.910;-1.514;2023-01-29T14:22:33;0.77;;;0.43;;
47958;SDS011;33718;50.910;-1.514;2023-01-29T14:24:35;1.15;;;0.40;;
47958;SDS011;33718;50.910;-1.514;2023-01-29T14:28:38;1.95;;;0.57;;
47958;SDS011;33718;50.910;-1.514;2023-01-29T14:30:42;1.13;;;0.32;;
47958;SDS011;33718;50.910;-1.514;2023-01-29T14:32:46;1.40;;;0.40;;
47958;SDS011;33718;50.910;-1.514;2023-01-29T14:35:00;0.98;;;0.50;;
47958;SDS011;33718;50.910;-1.514;2023-01-29T14:37:13;1.02;;;0.60;;
47958;SDS011;33718;50.910;-1.514;2023-01-29T14:39:32;1.45;;;0.60;;
47958;SDS011;33718;50.910;-1.514;2023-01-29T14:41:34;2.33;;;0.60;;
47958;SDS011;33718;50.910;-1.514;2023-01-29T14:43:42;0.82;;;0.50;;
47958;SDS011;33718;50.910;-1.514;2023-01-29T14:45:44;1.20;;;0.70;;
47958;SDS011;33718;50.910;-1.514;2023-01-29T14:47:53;0.30;;;0.30;;
47958;SDS011;33718;50.910;-1.514;2023-01-29T14:49:56;0.65;;;0.40;;
47958;SDS011;33718;50.910;-1.514;2023-01-29T14:51:58;1.27;;;0.55;;
47958;SDS011;33718;50.910;-1.514;2023-01-29T14:54:01;4.43;;;0.30;;
47958;SDS011;33718;50.910;-1.514;2023-01-29T14:56:13;1.00;;;0.60;;
47958;SDS011;33718;50.910;-1.514;2023-01-29T14:58:23;0.40;;;0.40;;
47958;SDS011;33718;50.910;-1.514;2023-01-29T15:00:27;0.50;;;0.50;;
47958;SDS011;33718;50.910;-1.514;2023-01-29T15:02:39;0.47;;;0.40;;
47958;SDS011;33718;50.910;-1.514;2023-01-29T15:04:45;0.50;;;0.50;;
47958;SDS011;33718;50.910;-1.514;2023-01-29T15:07:35;3.13;;;0.60;;
47958;SDS011;33718;50.910;-1.514;2023-01-29T15:11:48;1.15;;;0.60;;
47958;SDS011;33718;50.910;-1.514;2023-01-29T15:14:15;4.45;;;0.70;;
47958;SDS011;33718;50.910;-1.514;2023-01-29T15:16:32;0.30;;;0.30;;
47958;SDS011;33718;50.910;-1.514;2023-01-29T15:18:43;1.85;;;0.60;;
47958;SDS011;33718;50.910;-1.514;2023-01-29T15:21:08;3.90;;;0.65;;
47958;SDS011;33718;50.910;-1.514;2023-01-29T15:23:24;2.45;;;0.95;;
47958;SDS011;33718;50.910;-1.514;2023-01-29T15:25:48;3.53;;;0.90;;
47958;SDS011;33718;50.910;-1.514;2023-01-29T15:27:57;0.95;;;0.60;;
47958;SDS011;33718;50.910;-1.514;2023-01-29T15:30:05;2.08;;;0.88;;
47958;SDS011;33718;50.910;-1.514;2023-01-29T15:32:13;3.17;;;1.13;;
47958;SDS011;33718;50.910;-1.514;2023-01-29T15:34:21;4.80;;;0.52;;
47958;SDS011;33718;50.910;-1.514;2023-01-29T15:36:27;3.80;;;0.50;;
47958;SDS011;33718;50.910;-1.514;2023-01-29T15:38:34;6.68;;;1.42;;
47958;SDS011;33718;50.910;-1.514;2023-01-29T15:40:39;2.33;;;0.77;;
47958;SDS011;33718;50.910;-1.514;2023-01-29T15:42:45;2.78;;;0.55;;
47958;SDS011;33718;50.910;-1.514;2023-01-29T15:44:48;1.08;;;0.60;;
47958;SDS011;33718;50.910;-1.514;2023-01-29T15:46:51;0.50;;;0.50;;
47958;SDS011;33718;50.910;-1.514;2023-01-29T15:48:56;0.90;;;0.52;;
47958;SDS011;33718;50.910;-1.514;2023-01-29T15:50:58;2.58;;;0.88;;
47958;SDS011;33718;50.910;-1.514;2023-01-29T15:53:06;1.15;;;0.40;;
47958;SDS011;33718;50.910;-1.514;2023-01-29T15:55:12;1.10;;;0.60;;
47958;SDS011;33718;50.910;-1.514;2023-01-29T15:57:18;1.20;;;0.50;;
47958;SDS011;33718;50.910;-1.514;2023-01-29T15:59:43;3.90;;;0.75;;
47958;SDS011;33718;50.910;-1.514;2023-01-29T16:01:45;0.82;;;0.60;;
47958;SDS011;33718;50.910;-1.514;2023-01-29T16:03:53;1.55;;;0.60;;
47958;SDS011;33718;50.910;-1.514;2023-01-29T16:06:01;6.65;;;1.48;;
47958;SDS011;33718;50.910;-1.514;2023-01-29T16:08:03;1.65;;;0.80;;
47958;SDS011;33718;50.910;-1.514;2023-01-29T16:10:33;2.20;;;0.88;;
47958;SDS011;33718;50.910;-1.514;2023-01-29T16:12:38;1.38;;;0.75;;
47958;SDS011;33718;50.910;-1.514;2023-01-29T16:14:56;1.30;;;0.98;;
47958;SDS011;33718;50.910;-1.514;2023-01-29T16:17:25;1.50;;;0.90;;
47958;SDS011;33718;50.910;-1.514;2023-01-29T16:19:38;2.20;;;0.85;;
47958;SDS011;33718;50.910;-1.514;2023-01-29T16:22:08;1.42;;;0.82;;
47958;SDS011;33718;50.910;-1.514;2023-01-29T16:24:16;4.47;;;2.17;;
47958;SDS011;33718;50.910;-1.514;2023-01-29T16:26:45;1.58;;;1.23;;
47958;SDS011;33718;50.910;-1.514;2023-01-29T16:29:08;2.45;;;1.25;;
47958;SDS011;33718;50.910;-1.514;2023-01-29T16:31:29;2.67;;;1.52;;
47958;SDS011;33718;50.910;-1.514;2023-01-29T16:33:49;7.10;;;1.25;;
47958;SDS011;33718;50.910;-1.514;2023-01-29T16:36:17;2.40;;;1.17;;
47958;SDS011;33718;50.910;-1.514;2023-01-29T16:38:34;2.78;;;1.25;;
47958;SDS011;33718;50.910;-1.514;2023-01-29T16:40:39;3.60;;;1.67;;
47958;SDS011;33718;50.910;-1.514;2023-01-29T16:48:25;3.70;;;1.65;;
47958;SDS011;33718;50.910;-1.514;2023-01-29T16:50:36;4.90;;;1.75;;
47958;SDS011;33718;50.910;-1.514;2023-01-29T16:53:20;3.92;;;1.60;;
47958;SDS011;33718;50.910;-1.514;2023-01-29T16:55:31;6.18;;;1.50;;
47958;SDS011;33718;50.910;-1.514;2023-01-29T16:57:39;3.70;;;1.70;;
47958;SDS011;33718;50.910;-1.514;2023-01-29T16:59:42;3.92;;;1.92;;
47958;SDS011;33718;50.910;-1.514;2023-01-29T17:01:44;2.85;;;1.88;;
47958;SDS011;33718;50.910;-1.514;2023-01-29T17:03:55;1.83;;;1.58;;
47958;SDS011;33718;50.910;-1.514;2023-01-29T17:05:57;2.13;;;1.35;;
47958;SDS011;33718;50.910;-1.514;2023-01-29T17:07:59;3.40;;;1.85;;
47958;SDS011;33718;50.910;-1.514;2023-01-29T17:10:04;2.58;;;1.67;;
47958;SDS011;33718;50.910;-1.514;2023-01-29T17:12:07;4.07;;;1.40;;
47958;SDS011;33718;50.910;-1.514;2023-01-29T17:14:22;6.95;;;2.45;;
47958;SDS011;33718;50.910;-1.514;2023-01-29T17:16:30;6.72;;;1.42;;
47958;SDS011;33718;50.910;-1.514;2023-01-29T17:19:16;1.92;;;1.30;;
47958;SDS011;33718;50.910;-1.514;2023-01-29T17:21:28;6.97;;;1.52;;
47958;SDS011;33718;50.910;-1.514;2023-01-29T17:23:36;5.40;;;1.40;;
47958;SDS011;33718;50.910;-1.514;2023-01-29T17:25:45;3.75;;;1.40;;
47958;SDS011;33718;50.910;-1.514;2023-01-29T17:27:49;3.83;;;1.60;;
47958;SDS011;33718;50.910;-1.514;2023-01-29T17:29:58;2.00;;;1.60;;
47958;SDS011;33718;50.910;-1.514;2023-01-29T17:32:03;2.78;;;1.38;;
47958;SDS011;33718;50.910;-1.514;2023-01-29T17:34:11;3.28;;;1.27;;
47958;SDS011;33718;50.910;-1.514;2023-01-29T17:36:22;1.63;;;1.17;;
47958;SDS011;33718;50.910;-1.514;2023-01-29T17:38:24;2.80;;;1.52;;
47958;SDS011;33718;50.910;-1.514;2023-01-29T17:40:35;3.40;;;1.10;;
47958;SDS011;33718;50.910;-1.514;2023-01-29T17:42:43;3.10;;;1.20;;
47958;SDS011;33718;50.910;-1.514;2023-01-29T17:44:45;4.13;;;2.22;;
47958;SDS011;33718;50.910;-1.514;2023-01-29T17:46:52;4.72;;;2.40;;
47958;SDS011;33718;50.910;-1.514;2023-01-29T17:48:54;1.27;;;1.17;;
47958;SDS011;33718;50.910;-1.514;2023-01-29T17:51:01;1.45;;;1.20;;
47958;SDS011;33718;50.910;-1.514;2023-01-29T17:53:03;5.93;;;1.73;;
47958;SDS011;33718;50.910;-1.514;2023-01-29T17:55:08;2.58;;;1.30;;
47958;SDS011;33718;50.910;-1.514;2023-01-29T17:57:10;2.05;;;1.52;;
47958;SDS011;33718;50.910;-1.514;2023-01-29T17:59:17;2.40;;;1.30;;
47958;SDS011;33718;50.910;-1.514;2023-01-29T18:01:19;3.70;;;2.05;;
47958;SDS011;33718;50.910;-1.514;2023-01-29T18:03:21;2.50;;;1.33;;
47958;SDS011;33718;50.910;-1.514;2023-01-29T18:05:23;1.92;;;1.75;;
47958;SDS011;33718;50.910;-1.514;2023-01-29T18:07:24;2.70;;;1.63;;
47958;SDS011;33718;50.910;-1.514;2023-01-29T18:09:45;5.00;;;1.83;;
47958;SDS011;33718;50.910;-1.514;2023-01-29T18:11:47;2.08;;;1.60;;
47958;SDS011;33718;50.910;-1.514;2023-01-29T18:13:55;3.63;;;1.98;;
47958;SDS011;33718;50.910;-1.514;2023-01-29T18:16:03;3.05;;;1.92;;
47958;SDS011;33718;50.910;-1.514;2023-01-29T18:18:12;4.32;;;2.08;;
47958;SDS011;33718;50.910;-1.514;2023-01-29T18:20:25;2.20;;;2.00;;
47958;SDS011;33718;50.910;-1.514;2023-01-29T18:22:46;4.82;;;1.73;;